SBOSBO NCL / EGNT
Speedbird OnlineSpeedbird Online NCL / EGNT

Newcastle Airport
14:47 6.2°C

Location Newcastle, United Kingdom
Latitude: 55.037498474121094
Longitude: -1.6916699409484863
Web Airport Website | Wikipedia
Altitude 81 Meter / 266 Feet
Distance 410 KM / 255 Miles
from London.
Time Zone UTC 0 hours (Europe/London)
Codes IATA: NCL
ICAO: EGNT
Runways
RunwayLength (m)Surface
072329Asphalt
252329Asphalt
Radio
TypeDescriptionFrequency
APPAPP124.375
ATISATIS118.375
GNDGND121.725
ILSRunway 07/25 ILS111.5
TWRTWR119.7
Live ATC
METAR EGNT 311420Z 28019KT 9999 SCT020 06/03 Q1016
TAF TAF AMD EGNT 311158Z 3112/0112 28020G32KT 9999 SCT035 PROB30 TEMPO 3112/3117 7000 SHRA PROB40 TEMPO 3117/0109 6000 RA SHRA BKN010
Weather As Of 31 Jan 2023 14:47
Description Scattered clouds
Wind 35 km/h from West (280°)
Cloud Cover 40%
Precipitation Rain: none, Snow: none
Sunrise 08:00
Sunset 16:39
Lounges Aspire Lounge , Main Terminal
Rotations During the last 90 days there were
383 flights from LHR
383 flights to LHR



Support Speedbird Online

© 2017-2023 Speedbird Online